createdAt,value
2017-06-05T00:00:43.901Z,1009.61
2017-06-05T00:01:45.347Z,1009.59
2017-06-05T00:02:46.811Z,1009.60
2017-06-05T00:03:48.266Z,1009.61
2017-06-05T00:04:49.716Z,1009.65
2017-06-05T00:05:51.165Z,1009.64
2017-06-05T00:06:52.616Z,1009.65
2017-06-05T00:07:54.072Z,1009.63
2017-06-05T00:08:55.529Z,1009.68
2017-06-05T00:09:56.986Z,1009.67
2017-06-05T00:10:58.437Z,1009.69
2017-06-05T00:11:59.909Z,1009.68
2017-06-05T00:13:01.355Z,1009.71
2017-06-05T00:14:02.810Z,1009.73
2017-06-05T00:15:04.262Z,1009.72
2017-06-05T00:16:05.722Z,1009.72
2017-06-05T00:17:07.170Z,1009.71
2017-06-05T00:18:08.624Z,1009.72
2017-06-05T00:19:10.075Z,1009.72
2017-06-05T00:20:11.526Z,1009.72
2017-06-05T00:21:12.977Z,1009.67
2017-06-05T00:22:14.436Z,1009.68
2017-06-05T00:23:15.893Z,1009.67
2017-06-05T00:24:17.338Z,1009.67
2017-06-05T00:25:18.790Z,1009.67
2017-06-05T00:26:20.258Z,1009.68
2017-06-05T00:27:21.718Z,1009.66
2017-06-05T00:28:23.179Z,1009.67
2017-06-05T00:29:24.632Z,1009.65
2017-06-05T00:30:26.084Z,1009.64
2017-06-05T00:31:27.532Z,1009.60
2017-06-05T00:32:29.000Z,1009.64
2017-06-05T00:33:30.450Z,1009.60
2017-06-05T00:34:31.910Z,1009.59
2017-06-05T00:35:33.369Z,1009.61
2017-06-05T00:36:34.817Z,1009.61
2017-06-05T00:37:36.277Z,1009.60
2017-06-05T00:38:37.771Z,1009.59
2017-06-05T00:39:39.223Z,1009.59
2017-06-05T00:40:40.680Z,1009.56
2017-06-05T00:41:42.135Z,1009.57
2017-06-05T00:42:43.588Z,1009.58
2017-06-05T00:43:45.038Z,1009.58
2017-06-05T00:44:46.493Z,1009.60
2017-06-05T00:45:47.944Z,1009.54
2017-06-05T00:46:49.406Z,1009.53
2017-06-05T00:47:50.857Z,1009.50
2017-06-05T00:48:52.313Z,1009.50
2017-06-05T00:49:53.887Z,1009.51
2017-06-05T00:50:55.336Z,1009.52
2017-06-05T00:51:56.899Z,1009.49
2017-06-05T00:52:58.347Z,1009.49
2017-06-05T00:53:59.797Z,1009.50
2017-06-05T00:55:01.261Z,1009.50
2017-06-05T00:56:02.708Z,1009.48
2017-06-05T00:57:04.179Z,1009.53
2017-06-05T00:58:05.636Z,1009.50
2017-06-05T00:59:07.107Z,1009.53
2017-06-05T01:00:08.560Z,1009.52
2017-06-05T01:01:10.015Z,1009.56
2017-06-05T01:02:11.479Z,1009.52
2017-06-05T01:03:12.937Z,1009.49
2017-06-05T01:04:14.409Z,1009.50
2017-06-05T01:05:15.868Z,1009.52
2017-06-05T01:06:17.326Z,1009.52
2017-06-05T01:07:18.774Z,1009.54
2017-06-05T01:08:20.229Z,1009.47
2017-06-05T01:09:21.677Z,1009.50
2017-06-05T01:10:23.125Z,1009.50
2017-06-05T01:11:24.587Z,1009.51
2017-06-05T01:12:26.043Z,1009.50
2017-06-05T01:13:27.493Z,1009.49
2017-06-05T01:14:28.952Z,1009.49
2017-06-05T01:15:30.405Z,1009.50
2017-06-05T01:16:31.893Z,1009.47
2017-06-05T01:17:33.343Z,1009.48
2017-06-05T01:18:34.798Z,1009.50
2017-06-05T01:19:36.255Z,1009.47
2017-06-05T01:20:37.707Z,1009.51
2017-06-05T01:21:39.163Z,1009.48
2017-06-05T01:22:40.607Z,1009.47
2017-06-05T01:23:42.061Z,1009.48
2017-06-05T01:24:43.518Z,1009.48
2017-06-05T01:25:44.968Z,1009.50
2017-06-05T01:27:51.262Z,1009.53
2017-06-05T01:28:52.710Z,1009.49
2017-06-05T01:29:54.164Z,1009.50
2017-06-05T01:30:55.611Z,1009.47
2017-06-05T01:31:57.067Z,1009.48
2017-06-05T01:32:58.514Z,1009.50
2017-06-05T01:33:59.976Z,1009.47
2017-06-05T01:35:01.423Z,1009.49
2017-06-05T01:36:02.873Z,1009.47
2017-06-05T01:37:04.327Z,1009.50
2017-06-05T01:38:05.782Z,1009.50
2017-06-05T01:39:07.241Z,1009.48
2017-06-05T01:40:08.687Z,1009.45
2017-06-05T01:41:10.149Z,1009.49
2017-06-05T01:42:11.606Z,1009.46
2017-06-05T01:43:13.057Z,1009.42
2017-06-05T01:44:14.534Z,1009.42
2017-06-05T01:45:15.988Z,1009.47
2017-06-05T01:46:17.440Z,1009.50
2017-06-05T01:47:18.896Z,1009.50
2017-06-05T01:48:20.398Z,1009.53
2017-06-05T01:49:21.852Z,1009.51
2017-06-05T01:50:23.313Z,1009.53
2017-06-05T01:51:24.760Z,1009.56
2017-06-05T01:52:26.209Z,1009.52
2017-06-05T01:53:27.666Z,1009.53
2017-06-05T01:54:29.118Z,1009.54
2017-06-05T01:55:30.566Z,1009.50
2017-06-05T01:56:32.098Z,1009.52
2017-06-05T01:57:33.671Z,1009.50
2017-06-05T01:58:35.134Z,1009.54
2017-06-05T01:59:36.585Z,1009.51
2017-06-05T02:00:38.046Z,1009.48
2017-06-05T02:01:39.498Z,1009.51
2017-06-05T02:02:40.960Z,1009.50
2017-06-05T02:03:42.431Z,1009.47
2017-06-05T02:04:43.879Z,1009.46
2017-06-05T02:05:45.341Z,1009.43
2017-06-05T02:06:46.798Z,1009.44
2017-06-05T02:07:48.250Z,1009.43
2017-06-05T02:08:49.700Z,1009.44
2017-06-05T02:09:51.154Z,1009.45
2017-06-05T02:10:52.610Z,1009.44
2017-06-05T02:11:54.059Z,1009.40
2017-06-05T02:12:55.509Z,1009.41
2017-06-05T02:13:56.969Z,1009.41
2017-06-05T02:14:58.416Z,1009.43
2017-06-05T02:15:59.863Z,1009.42
2017-06-05T02:17:01.322Z,1009.39
2017-06-05T02:18:02.777Z,1009.39
2017-06-05T02:19:04.236Z,1009.39
2017-06-05T02:20:05.691Z,1009.38
2017-06-05T02:21:07.141Z,1009.37
2017-06-05T02:22:08.595Z,1009.36
2017-06-05T02:23:10.059Z,1009.37
2017-06-05T02:24:11.507Z,1009.43
2017-06-05T02:25:12.966Z,1009.40
2017-06-05T02:26:14.440Z,1009.40
2017-06-05T02:27:15.886Z,1009.44
2017-06-05T02:28:17.344Z,1009.44
2017-06-05T02:29:18.791Z,1009.45
2017-06-05T02:30:20.247Z,1009.47
2017-06-05T02:31:21.700Z,1009.45
2017-06-05T02:32:23.153Z,1009.45
2017-06-05T02:33:24.614Z,1009.47
2017-06-05T02:34:26.065Z,1009.47
2017-06-05T02:35:27.513Z,1009.43
2017-06-05T02:36:28.965Z,1009.46
2017-06-05T02:37:30.423Z,1009.43
2017-06-05T02:38:31.870Z,1009.38
2017-06-05T02:39:33.330Z,1009.40
2017-06-05T02:40:34.779Z,1009.38
2017-06-05T02:41:36.230Z,1009.39
2017-06-05T02:42:37.685Z,1009.39
2017-06-05T02:43:39.168Z,1009.42
2017-06-05T02:44:40.628Z,1009.41
2017-06-05T02:45:42.079Z,1009.42
2017-06-05T02:46:43.534Z,1009.40
2017-06-05T02:47:44.983Z,1009.40
2017-06-05T02:48:46.438Z,1009.40
2017-06-05T02:49:47.886Z,1009.40
2017-06-05T02:50:49.343Z,1009.41
2017-06-05T02:51:50.792Z,1009.44
2017-06-05T02:52:52.245Z,1009.41
2017-06-05T02:53:53.692Z,1009.40
2017-06-05T02:54:55.142Z,1009.44
2017-06-05T02:55:56.596Z,1009.42
2017-06-05T02:56:58.052Z,1009.42
2017-06-05T02:57:59.503Z,1009.41
2017-06-05T02:59:00.950Z,1009.41
2017-06-05T03:00:02.413Z,1009.42
2017-06-05T03:01:03.867Z,1009.42
2017-06-05T03:02:05.315Z,1009.40
2017-06-05T03:03:06.783Z,1009.38
2017-06-05T03:04:08.238Z,1009.43
2017-06-05T03:05:09.692Z,1009.40
2017-06-05T03:06:11.153Z,1009.39
2017-06-05T03:07:12.609Z,1009.37
2017-06-05T03:08:14.066Z,1009.39
2017-06-05T03:09:15.530Z,1009.40
2017-06-05T03:10:16.984Z,1009.36
2017-06-05T03:11:18.436Z,1009.40
2017-06-05T03:12:19.887Z,1009.37
2017-06-05T03:13:21.344Z,1009.36
2017-06-05T03:14:22.799Z,1009.38
2017-06-05T03:15:24.248Z,1009.37
2017-06-05T03:16:25.710Z,1009.38
2017-06-05T03:17:27.163Z,1009.34
2017-06-05T03:18:28.613Z,1009.33
2017-06-05T03:19:30.063Z,1009.31
2017-06-05T03:20:31.525Z,1009.31
2017-06-05T03:21:32.975Z,1009.28
2017-06-05T03:22:34.435Z,1009.29
2017-06-05T03:23:35.890Z,1009.31
2017-06-05T03:24:37.345Z,1009.30
2017-06-05T03:25:38.799Z,1009.30
2017-06-05T03:26:40.368Z,1009.32
2017-06-05T03:27:41.821Z,1009.32
2017-06-05T03:28:43.273Z,1009.32
2017-06-05T03:29:44.734Z,1009.26
2017-06-05T03:30:46.191Z,1009.29
2017-06-05T03:31:47.648Z,1009.24
2017-06-05T03:32:49.099Z,1009.29
2017-06-05T03:33:50.552Z,1009.29
2017-06-05T03:34:52.020Z,1009.25
2017-06-05T03:35:53.505Z,1009.22
2017-06-05T03:36:54.958Z,1009.25
2017-06-05T03:37:56.432Z,1009.20
2017-06-05T03:38:57.885Z,1009.24
2017-06-05T03:39:59.347Z,1009.24
2017-06-05T03:41:00.797Z,1009.20
2017-06-05T03:42:02.254Z,1009.19
2017-06-05T03:43:03.712Z,1009.17
2017-06-05T03:44:05.177Z,1009.19
2017-06-05T03:45:06.633Z,1009.17
2017-06-05T03:46:08.111Z,1009.12
2017-06-05T03:47:09.571Z,1009.15
2017-06-05T03:48:11.027Z,1009.12
2017-06-05T03:49:12.491Z,1009.13
2017-06-05T03:50:13.949Z,1009.10
2017-06-05T03:51:15.416Z,1009.14
2017-06-05T03:52:16.872Z,1009.13
2017-06-05T03:53:18.332Z,1009.15
2017-06-05T03:54:19.789Z,1009.12
2017-06-05T03:55:21.241Z,1009.15
2017-06-05T03:56:22.701Z,1009.10
2017-06-05T03:57:24.159Z,1009.10
2017-06-05T03:58:25.627Z,1009.07
2017-06-05T03:59:27.084Z,1009.13
2017-06-05T04:00:28.536Z,1009.12
2017-06-05T04:01:29.996Z,1009.15
2017-06-05T04:02:31.455Z,1009.07
2017-06-05T04:03:32.913Z,1009.13
2017-06-05T04:04:34.374Z,1009.14
2017-06-05T04:05:35.847Z,1009.11
2017-06-05T04:06:37.302Z,1009.14
2017-06-05T04:07:38.757Z,1009.12
2017-06-05T04:08:40.212Z,1009.12
2017-06-05T04:09:41.678Z,1009.10
2017-06-05T04:10:43.141Z,1009.11
2017-06-05T04:11:44.595Z,1009.11
2017-06-05T04:12:46.061Z,1009.10
2017-06-05T04:13:47.527Z,1009.09
2017-06-05T04:14:48.984Z,1009.11
2017-06-05T04:15:50.444Z,1009.11
2017-06-05T04:16:51.901Z,1009.12
2017-06-05T04:17:53.368Z,1009.12
2017-06-05T04:18:54.826Z,1009.13
2017-06-05T04:19:56.291Z,1009.10
2017-06-05T04:20:57.750Z,1009.17
2017-06-05T04:21:59.203Z,1009.15
2017-06-05T04:23:00.665Z,1009.17
2017-06-05T04:24:02.139Z,1009.16
2017-06-05T04:25:03.602Z,1009.19
2017-06-05T04:26:06.682Z,1009.19
2017-06-05T04:27:08.145Z,1009.16
2017-06-05T04:28:09.607Z,1009.20
2017-06-05T04:29:11.060Z,1009.21
2017-06-05T04:30:12.515Z,1009.23
2017-06-05T04:31:13.970Z,1009.26
2017-06-05T04:32:15.426Z,1009.24
2017-06-05T04:33:16.886Z,1009.22
2017-06-05T04:34:18.343Z,1009.22
2017-06-05T04:35:19.804Z,1009.23
2017-06-05T04:36:21.264Z,1009.28
2017-06-05T04:37:22.718Z,1009.29
2017-06-05T04:38:24.179Z,1009.33
2017-06-05T04:39:25.636Z,1009.30
2017-06-05T04:40:27.094Z,1009.29
2017-06-05T04:41:28.641Z,1009.31
2017-06-05T04:42:30.105Z,1009.31
2017-06-05T04:43:31.661Z,1009.30
2017-06-05T04:44:33.123Z,1009.29
2017-06-05T04:45:34.581Z,1009.30
2017-06-05T04:46:36.050Z,1009.33
2017-06-05T04:47:37.511Z,1009.33
2017-06-05T04:48:38.999Z,1009.33
2017-06-05T04:49:40.425Z,1009.32
2017-06-05T04:50:41.886Z,1009.33
2017-06-05T04:51:43.351Z,1009.35
2017-06-05T04:52:44.817Z,1009.35
2017-06-05T04:53:46.285Z,1009.36
2017-06-05T04:54:47.743Z,1009.40
2017-06-05T04:55:49.207Z,1009.38
2017-06-05T04:56:50.679Z,1009.39
2017-06-05T04:57:52.157Z,1009.40
2017-06-05T04:58:53.613Z,1009.38
2017-06-05T04:59:55.089Z,1009.41
2017-06-05T05:00:56.557Z,1009.40
2017-06-05T05:01:58.046Z,1009.40
2017-06-05T05:02:59.487Z,1009.43
2017-06-05T05:04:00.950Z,1009.44
2017-06-05T05:05:02.404Z,1009.43
2017-06-05T05:06:05.084Z,1009.50
2017-06-05T05:07:06.555Z,1009.48
2017-06-05T05:08:08.019Z,1009.48
2017-06-05T05:09:09.482Z,1009.52
2017-06-05T05:10:10.961Z,1009.52
2017-06-05T05:11:12.416Z,1009.55
2017-06-05T05:12:13.884Z,1009.53
2017-06-05T05:13:15.351Z,1009.51
2017-06-05T05:14:16.811Z,1009.54
2017-06-05T05:15:18.295Z,1009.52
2017-06-05T05:16:19.759Z,1009.53
2017-06-05T05:17:21.227Z,1009.51
2017-06-05T05:18:22.685Z,1009.51
2017-06-05T05:19:24.146Z,1009.48
2017-06-05T05:20:25.615Z,1009.48
2017-06-05T05:21:27.093Z,1009.49
2017-06-05T05:22:28.543Z,1009.44
2017-06-05T05:23:30.003Z,1009.39
2017-06-05T05:24:31.477Z,1009.40
2017-06-05T05:25:32.943Z,1009.39
2017-06-05T05:26:34.411Z,1009.39
2017-06-05T05:27:35.875Z,1009.38
2017-06-05T05:28:37.336Z,1009.39
2017-06-05T05:29:38.796Z,1009.41
2017-06-05T05:30:40.275Z,1009.43
2017-06-05T05:31:41.758Z,1009.47
2017-06-05T05:32:43.209Z,1009.47
2017-06-05T05:33:44.677Z,1009.48
2017-06-05T05:34:46.146Z,1009.47
2017-06-05T05:35:47.606Z,1009.47
2017-06-05T05:36:49.085Z,1009.48
2017-06-05T05:37:50.572Z,1009.49
2017-06-05T05:38:52.039Z,1009.48
2017-06-05T05:39:53.507Z,1009.48
2017-06-05T05:40:54.972Z,1009.45
2017-06-05T05:41:56.438Z,1009.49
2017-06-05T05:42:57.905Z,1009.49
2017-06-05T05:43:59.361Z,1009.47
2017-06-05T05:45:00.827Z,1009.49
2017-06-05T05:46:03.301Z,1009.47
2017-06-05T05:47:04.766Z,1009.45
2017-06-05T05:48:06.232Z,1009.48
2017-06-05T05:49:07.695Z,1009.45
2017-06-05T05:50:09.163Z,1009.49
2017-06-05T05:51:10.623Z,1009.47
2017-06-05T05:52:12.094Z,1009.51
2017-06-05T05:53:13.555Z,1009.52
2017-06-05T05:54:15.022Z,1009.51
2017-06-05T05:55:16.481Z,1009.50
2017-06-05T05:56:17.966Z,1009.54
2017-06-05T05:57:19.439Z,1009.56
2017-06-05T05:58:20.902Z,1009.56
2017-06-05T05:59:22.372Z,1009.57
2017-06-05T06:00:23.846Z,1009.52
2017-06-05T06:01:25.311Z,1009.57
2017-06-05T06:02:26.772Z,1009.58
2017-06-05T06:03:28.230Z,1009.62
2017-06-05T06:04:29.690Z,1009.62
2017-06-05T06:05:31.157Z,1009.60
2017-06-05T06:06:32.622Z,1009.59
2017-06-05T06:07:34.088Z,1009.61
2017-06-05T06:08:35.577Z,1009.64
2017-06-05T06:09:37.041Z,1009.62
2017-06-05T06:10:38.509Z,1009.63
2017-06-05T06:11:39.981Z,1009.61
2017-06-05T06:12:41.449Z,1009.58
2017-06-05T06:13:42.947Z,1009.54
2017-06-05T06:14:44.424Z,1009.57
2017-06-05T06:15:45.892Z,1009.62
2017-06-05T06:16:47.362Z,1009.64
2017-06-05T06:17:48.829Z,1009.63
2017-06-05T06:18:50.306Z,1009.67
2017-06-05T06:19:51.779Z,1009.69
2017-06-05T06:20:53.248Z,1009.68
2017-06-05T06:21:54.725Z,1009.70
2017-06-05T06:22:56.188Z,1009.71
2017-06-05T06:23:57.661Z,1009.65
2017-06-05T06:24:59.145Z,1009.72
2017-06-05T06:26:00.613Z,1009.73
2017-06-05T06:27:02.088Z,1009.75
2017-06-05T06:28:03.557Z,1009.80
2017-06-05T06:29:05.097Z,1009.81
2017-06-05T06:30:06.560Z,1009.77
2017-06-05T06:31:08.147Z,1009.73
2017-06-05T06:32:09.627Z,1009.89
2017-06-05T06:33:11.102Z,1009.94
2017-06-05T06:34:12.568Z,1009.97
2017-06-05T06:35:14.043Z,1009.94
2017-06-05T06:36:15.515Z,1009.97
2017-06-05T06:37:16.986Z,1009.88
2017-06-05T06:38:18.469Z,1009.83
2017-06-05T06:39:19.935Z,1009.79
2017-06-05T06:40:21.412Z,1009.80
2017-06-05T06:41:22.895Z,1009.84
2017-06-05T06:42:24.397Z,1009.94
2017-06-05T06:43:25.870Z,1009.98
2017-06-05T06:44:27.342Z,1010.11
2017-06-05T06:45:28.807Z,1010.13
2017-06-05T06:46:30.321Z,1010.09
2017-06-05T06:47:31.792Z,1010.09
2017-06-05T06:48:33.262Z,1010.07
2017-06-05T06:49:34.746Z,1010.01
2017-06-05T06:50:36.219Z,1010.27
2017-06-05T06:51:37.690Z,1010.19
2017-06-05T06:52:39.175Z,1010.15
2017-06-05T06:53:40.641Z,1010.26
2017-06-05T06:54:42.120Z,1010.25
2017-06-05T06:55:43.591Z,1010.24
2017-06-05T06:56:45.080Z,1010.23
2017-06-05T06:57:46.555Z,1010.42
2017-06-05T06:58:48.034Z,1010.73
2017-06-05T06:59:49.515Z,1010.70
2017-06-05T07:00:50.982Z,1010.31
2017-06-05T07:01:52.456Z,1009.96
2017-06-05T07:02:53.926Z,1009.89
2017-06-05T07:03:55.400Z,1009.94
2017-06-05T07:04:56.869Z,1009.89
2017-06-05T07:05:58.354Z,1009.82
2017-06-05T07:06:59.823Z,1009.97
2017-06-05T07:08:01.298Z,1010.05
2017-06-05T07:09:02.777Z,1010.01
2017-06-05T07:10:04.259Z,1009.96
2017-06-05T07:11:05.737Z,1010.07
2017-06-05T07:12:07.209Z,1009.93
2017-06-05T07:13:08.687Z,1010.01
2017-06-05T07:14:10.175Z,1010.02
2017-06-05T07:15:11.665Z,1009.99
2017-06-05T07:16:13.144Z,1010.00
2017-06-05T07:17:14.617Z,1009.96
2017-06-05T07:18:16.105Z,1009.96
2017-06-05T07:19:17.582Z,1010.02
2017-06-05T07:20:19.051Z,1009.95
2017-06-05T07:21:20.524Z,1009.94
2017-06-05T07:22:22.008Z,1009.94
2017-06-05T07:23:23.495Z,1009.84
2017-06-05T07:24:24.975Z,1009.86
2017-06-05T07:25:26.458Z,1009.90
2017-06-05T07:26:27.954Z,1009.97
2017-06-05T07:27:29.423Z,1009.91
2017-06-05T07:28:30.896Z,1009.96
2017-06-05T07:29:32.365Z,1009.95
2017-06-05T07:30:33.841Z,1009.87
2017-06-05T07:31:35.317Z,1009.84
2017-06-05T07:32:36.792Z,1009.88
2017-06-05T07:33:38.267Z,1009.90
2017-06-05T07:34:39.741Z,1009.76
2017-06-05T07:35:41.225Z,1009.78
2017-06-05T07:36:42.707Z,1009.85
2017-06-05T07:37:44.180Z,1009.82
2017-06-05T07:38:45.658Z,1009.75
2017-06-05T07:39:47.130Z,1009.72
2017-06-05T07:40:48.600Z,1009.68
2017-06-05T07:41:50.088Z,1009.71
2017-06-05T07:42:51.565Z,1009.72
2017-06-05T07:43:53.040Z,1009.73
2017-06-05T07:44:54.517Z,1009.75
2017-06-05T07:45:55.988Z,1009.70
2017-06-05T07:46:57.472Z,1009.70
2017-06-05T07:47:58.945Z,1009.65
2017-06-05T07:49:00.428Z,1009.55
2017-06-05T07:50:01.916Z,1009.65
2017-06-05T07:51:03.408Z,1009.58
2017-06-05T07:52:04.892Z,1009.55
2017-06-05T07:53:06.365Z,1009.59
2017-06-05T07:54:07.850Z,1009.57
2017-06-05T07:55:09.328Z,1009.60
2017-06-05T07:56:10.807Z,1009.58
2017-06-05T07:57:12.365Z,1009.53
2017-06-05T07:58:13.838Z,1009.50
2017-06-05T07:59:15.341Z,1009.51
2017-06-05T08:00:16.812Z,1009.51
2017-06-05T08:01:18.304Z,1009.48
2017-06-05T08:02:19.781Z,1009.52
2017-06-05T08:03:21.278Z,1009.52
2017-06-05T08:04:22.752Z,1009.56
2017-06-05T08:05:24.288Z,1009.54
2017-06-05T08:06:25.774Z,1009.50
2017-06-05T08:07:27.407Z,1009.59
2017-06-05T08:08:28.890Z,1009.45
2017-06-05T08:09:30.478Z,1009.45
2017-06-05T08:10:31.939Z,1009.38
2017-06-05T08:11:33.541Z,1009.44
2017-06-05T08:12:35.011Z,1009.35
2017-06-05T08:13:36.608Z,1009.39
2017-06-05T08:14:38.084Z,1009.40
2017-06-05T08:15:39.552Z,1009.47
2017-06-05T08:16:41.033Z,1009.37
2017-06-05T08:17:42.512Z,1009.40
2017-06-05T08:18:43.982Z,1009.32
2017-06-05T08:19:45.463Z,1009.36
2017-06-05T08:20:46.934Z,1009.27
2017-06-05T08:21:48.411Z,1009.30
2017-06-05T08:22:49.889Z,1009.31
2017-06-05T08:23:51.362Z,1009.31
2017-06-05T08:24:52.835Z,1009.33
2017-06-05T08:25:54.321Z,1009.29
2017-06-05T08:26:55.799Z,1009.25
2017-06-05T08:27:57.280Z,1009.28
2017-06-05T08:28:58.763Z,1009.30
2017-06-05T08:30:00.238Z,1009.26
2017-06-05T08:31:01.715Z,1009.27
2017-06-05T08:32:03.207Z,1009.31
2017-06-05T08:33:04.681Z,1009.39
2017-06-05T08:34:06.171Z,1009.34
2017-06-05T08:35:07.637Z,1009.36
2017-06-05T08:36:11.232Z,1009.37
2017-06-05T08:37:12.704Z,1009.39
2017-06-05T08:38:14.182Z,1009.32
2017-06-05T08:39:15.656Z,1009.30
2017-06-05T08:40:17.131Z,1009.34
2017-06-05T08:41:18.623Z,1009.30
2017-06-05T08:42:20.110Z,1009.24
2017-06-05T08:43:21.595Z,1009.30
2017-06-05T08:44:23.078Z,1009.24
2017-06-05T08:45:24.559Z,1009.18
2017-06-05T08:46:26.043Z,1009.23
2017-06-05T08:47:27.521Z,1009.26
2017-06-05T08:48:29.002Z,1009.30
2017-06-05T08:49:30.479Z,1009.28
2017-06-05T08:50:31.954Z,1009.35
2017-06-05T08:51:33.438Z,1009.39
2017-06-05T08:52:34.926Z,1009.31
2017-06-05T08:53:36.398Z,1009.33
2017-06-05T08:54:37.883Z,1009.24
2017-06-05T08:55:39.368Z,1009.26
2017-06-05T08:56:40.842Z,1009.29
2017-06-05T08:57:42.323Z,1009.17
2017-06-05T08:58:43.835Z,1009.19
2017-06-05T08:59:45.316Z,1009.17
2017-06-05T09:00:46.802Z,1009.05
2017-06-05T09:01:48.272Z,1009.03
2017-06-05T09:02:49.747Z,1009.07
2017-06-05T09:03:51.224Z,1008.93
2017-06-05T09:04:52.709Z,1008.89
2017-06-05T09:05:54.198Z,1008.92
2017-06-05T09:06:55.739Z,1008.89
2017-06-05T09:07:57.207Z,1008.89
2017-06-05T09:08:58.681Z,1008.89
2017-06-05T09:10:00.158Z,1008.79
2017-06-05T09:11:01.637Z,1008.82
2017-06-05T09:12:03.116Z,1008.79
2017-06-05T09:13:04.611Z,1008.77
2017-06-05T09:14:06.088Z,1008.79
2017-06-05T09:15:07.567Z,1008.81
2017-06-05T09:16:09.084Z,1008.79
2017-06-05T09:17:10.563Z,1008.77
2017-06-05T09:18:12.038Z,1008.83
2017-06-05T09:19:13.532Z,1008.85
2017-06-05T09:20:15.007Z,1008.79
2017-06-05T09:21:16.485Z,1008.78
2017-06-05T09:22:17.965Z,1008.84
2017-06-05T09:23:19.440Z,1008.85
2017-06-05T09:24:20.933Z,1008.79
2017-06-05T09:25:22.407Z,1008.86
2017-06-05T09:26:23.883Z,1008.79
2017-06-05T09:27:25.365Z,1008.77
2017-06-05T09:28:26.840Z,1008.72
2017-06-05T09:29:28.314Z,1008.66
2017-06-05T09:30:29.795Z,1008.69
2017-06-05T09:31:31.272Z,1008.67
2017-06-05T09:32:32.755Z,1008.64
2017-06-05T09:33:34.239Z,1008.70
2017-06-05T09:34:35.733Z,1008.61
2017-06-05T09:35:37.208Z,1008.62
2017-06-05T09:36:38.699Z,1008.69
2017-06-05T09:37:40.168Z,1008.64
2017-06-05T09:38:41.654Z,1008.69
2017-06-05T09:39:43.138Z,1008.61
2017-06-05T09:40:44.675Z,1008.71
2017-06-05T09:41:46.178Z,1008.57
2017-06-05T09:42:47.671Z,1008.63
2017-06-05T09:43:49.159Z,1008.58
2017-06-05T09:44:50.637Z,1008.57
2017-06-05T09:45:52.129Z,1008.53
2017-06-05T09:46:53.673Z,1008.60
2017-06-05T09:47:55.195Z,1008.58
2017-06-05T09:48:56.682Z,1008.60
2017-06-05T09:49:58.242Z,1008.56
2017-06-05T09:50:59.723Z,1008.55
2017-06-05T09:52:01.220Z,1008.59
2017-06-05T09:53:02.703Z,1008.63
2017-06-05T09:54:04.188Z,1008.61
2017-06-05T09:55:05.709Z,1008.68
2017-06-05T09:56:07.211Z,1008.82
2017-06-05T09:57:08.725Z,1008.76
2017-06-05T09:58:10.212Z,1008.64
2017-06-05T09:59:11.684Z,1008.60
2017-06-05T10:00:13.171Z,1008.64
2017-06-05T10:01:14.666Z,1008.58
2017-06-05T10:02:16.162Z,1008.54
2017-06-05T10:03:17.653Z,1008.61
2017-06-05T10:04:19.133Z,1008.53
2017-06-05T10:05:20.607Z,1008.57
2017-06-05T10:06:22.087Z,1008.54
2017-06-05T10:07:23.568Z,1008.54
2017-06-05T10:08:25.063Z,1008.52
2017-06-05T10:09:26.581Z,1008.47
2017-06-05T10:10:28.066Z,1008.42
2017-06-05T10:11:29.545Z,1008.46
2017-06-05T10:12:31.032Z,1008.44
2017-06-05T10:13:32.507Z,1008.48
2017-06-05T10:14:33.992Z,1008.45
2017-06-05T10:15:35.473Z,1008.64
2017-06-05T10:16:36.985Z,1008.71
2017-06-05T10:17:38.473Z,1008.45
2017-06-05T10:18:39.958Z,1008.37
2017-06-05T10:19:41.492Z,1008.36
2017-06-05T10:20:42.975Z,1008.34
2017-06-05T10:21:44.461Z,1008.29
2017-06-05T10:22:45.944Z,1008.30
2017-06-05T10:23:47.431Z,1008.27
2017-06-05T10:24:48.925Z,1008.28
2017-06-05T10:25:50.416Z,1008.28
2017-06-05T10:26:51.895Z,1008.30
2017-06-05T10:27:53.376Z,1008.30
2017-06-05T10:28:54.854Z,1008.30
2017-06-05T10:29:56.342Z,1008.33
2017-06-05T10:30:57.850Z,1008.37
2017-06-05T10:31:59.352Z,1008.34
2017-06-05T10:33:00.942Z,1008.28
2017-06-05T10:34:02.423Z,1008.32
2017-06-05T10:35:03.904Z,1008.29
2017-06-05T10:36:06.551Z,1008.23
2017-06-05T10:37:08.044Z,1008.28
2017-06-05T10:38:09.524Z,1008.26
2017-06-05T10:39:11.004Z,1008.26
2017-06-05T10:40:12.499Z,1008.23
2017-06-05T10:41:13.995Z,1008.26
2017-06-05T10:42:15.474Z,1008.17
2017-06-05T10:43:16.960Z,1008.17
2017-06-05T10:44:18.453Z,1008.18
2017-06-05T10:45:19.935Z,1008.07
2017-06-05T10:46:21.435Z,1008.05
2017-06-05T10:47:22.933Z,1008.09
2017-06-05T10:48:24.444Z,1008.09
2017-06-05T10:49:25.924Z,1008.06
2017-06-05T10:50:27.412Z,1008.06
2017-06-05T10:51:28.904Z,1008.05
2017-06-05T10:52:30.385Z,1007.97
2017-06-05T10:53:31.867Z,1007.71
2017-06-05T10:54:33.351Z,1008.01
2017-06-05T10:55:34.841Z,1008.06
2017-06-05T10:56:36.323Z,1008.01
2017-06-05T10:57:37.851Z,1008.08
2017-06-05T10:58:39.341Z,1007.98
2017-06-05T10:59:40.836Z,1008.06
2017-06-05T11:00:42.315Z,1007.99
2017-06-05T11:01:43.801Z,1007.89
2017-06-05T11:02:45.277Z,1007.99
2017-06-05T11:03:46.761Z,1007.94
2017-06-05T11:04:48.261Z,1007.99
2017-06-05T11:05:49.756Z,1008.01
2017-06-05T11:06:51.249Z,1007.99
2017-06-05T11:07:52.738Z,1008.00
2017-06-05T11:08:54.233Z,1008.01
2017-06-05T11:09:55.712Z,1007.96
2017-06-05T11:10:57.201Z,1007.95
2017-06-05T11:11:58.763Z,1008.01
2017-06-05T11:13:00.251Z,1007.97
2017-06-05T11:14:01.733Z,1007.94
2017-06-05T11:15:03.216Z,1007.92
2017-06-05T11:16:04.696Z,1007.90
2017-06-05T11:17:06.197Z,1007.90
2017-06-05T11:18:07.680Z,1007.81
2017-06-05T11:19:09.165Z,1007.76
2017-06-05T11:20:10.667Z,1007.82
2017-06-05T11:21:12.167Z,1007.81
2017-06-05T11:22:13.646Z,1007.81
2017-06-05T11:23:15.131Z,1007.84
2017-06-05T11:24:16.610Z,1007.88
2017-06-05T11:25:18.164Z,1007.96
2017-06-05T11:26:19.679Z,1007.92
2017-06-05T11:27:21.179Z,1007.94
2017-06-05T11:28:22.660Z,1007.98
2017-06-05T11:29:24.157Z,1007.96
2017-06-05T11:30:25.646Z,1007.94
2017-06-05T11:31:27.125Z,1007.87
2017-06-05T11:32:28.611Z,1007.85
2017-06-05T11:33:30.097Z,1007.81
2017-06-05T11:34:31.583Z,1007.78
2017-06-05T11:35:33.084Z,1007.75
2017-06-05T11:36:34.583Z,1007.66
2017-06-05T11:37:36.073Z,1007.68
2017-06-05T11:38:37.557Z,1007.53
2017-06-05T11:39:39.045Z,1007.56
2017-06-05T11:40:41.236Z,1007.52
2017-06-05T11:41:42.721Z,1007.52
2017-06-05T11:42:44.210Z,1007.69
2017-06-05T11:43:45.712Z,1007.58
2017-06-05T11:44:47.205Z,1007.60
2017-06-05T11:45:48.683Z,1007.58
2017-06-05T11:46:50.174Z,1007.56
2017-06-05T11:47:51.669Z,1007.55
2017-06-05T11:48:53.145Z,1007.59
2017-06-05T11:49:54.631Z,1007.49
2017-06-05T11:50:56.119Z,1007.48
2017-06-05T11:51:57.606Z,1007.43
2017-06-05T11:52:59.117Z,1007.38
2017-06-05T11:54:00.660Z,1007.39
2017-06-05T11:55:02.151Z,1007.31
2017-06-05T11:56:03.658Z,1007.27
2017-06-05T11:57:05.139Z,1007.48
2017-06-05T11:58:06.649Z,1007.43
2017-06-05T11:59:08.139Z,1007.28
2017-06-05T12:00:09.615Z,1007.19
2017-06-05T12:01:11.101Z,1007.18
2017-06-05T12:02:12.586Z,1007.19
2017-06-05T12:03:14.074Z,1007.09
2017-06-05T12:04:15.554Z,1007.06
2017-06-05T12:05:17.062Z,1007.06
2017-06-05T12:06:18.574Z,1007.08
2017-06-05T12:07:20.055Z,1007.05
2017-06-05T12:08:21.541Z,1006.98
2017-06-05T12:09:23.033Z,1007.05
2017-06-05T12:10:24.535Z,1007.07
2017-06-05T12:11:26.024Z,1007.11
2017-06-05T12:12:27.511Z,1007.13
2017-06-05T12:13:28.994Z,1007.53
2017-06-05T12:14:30.471Z,1007.30
2017-06-05T12:15:31.972Z,1007.03
2017-06-05T12:16:33.455Z,1007.01
2017-06-05T12:17:34.940Z,1007.08
2017-06-05T12:18:36.432Z,1006.96
2017-06-05T12:19:37.926Z,1006.96
2017-06-05T12:20:39.411Z,1007.14
2017-06-05T12:21:40.896Z,1007.48
2017-06-05T12:22:42.379Z,1007.49
2017-06-05T12:23:43.875Z,1007.26
2017-06-05T12:24:45.374Z,1006.87